Lake Centralia, Illinois
Current Conditions -  °F | °C
As of 11:54 PM on Saturday 22 Nov 2014 (Local Time) from KSET Reporting Station
Haze Haze  
Wind Chill: 50°   Ceiling: 7000
Heat Index: 50°   Visibility: 6mi
Dew Point: 49°   Wind: 7mph
Humidity: 96%   Direction: 100°E
Pressure: 29.85"   Gusts: NA
Location:  39.2808°N, 90.272°W
Report Text: KSET 230554Z AUTO 10006KT 6SM BR BKN070 OVC090 10/09 A2985 RMK AO2 SLP106 60003 T01000094 10117 20100 401500028 57020
Loading
Personal Weather Stations






























Interactive Weather Map New forecast layout! Learn more

10-Day Weather Forecast

Advertisements
Track Severe Weather on mobile